sensor_id;sensor_type;location;lat;lon;timestamp;P1;durP1;ratioP1;P2;durP2;ratioP2
43580;SDS011;29175;51.030;4.606;2023-01-28T00:02:05;22.80;;;10.02;;
43580;SDS011;29175;51.030;4.606;2023-01-28T00:04:31;16.60;;;8.35;;
43580;SDS011;29175;51.030;4.606;2023-01-28T00:06:56;16.55;;;8.93;;
43580;SDS011;29175;51.030;4.606;2023-01-28T00:09:22;21.98;;;9.05;;
43580;SDS011;29175;51.030;4.606;2023-01-28T00:11:48;19.92;;;9.25;;
43580;SDS011;29175;51.030;4.606;2023-01-28T00:14:14;23.40;;;10.07;;
43580;SDS011;29175;51.030;4.606;2023-01-28T00:16:39;20.60;;;9.40;;
43580;SDS011;29175;51.030;4.606;2023-01-28T00:19:05;20.25;;;9.32;;
43580;SDS011;29175;51.030;4.606;2023-01-28T00:21:31;25.88;;;10.45;;
43580;SDS011;29175;51.030;4.606;2023-01-28T00:23:57;25.08;;;10.65;;
43580;SDS011;29175;51.030;4.606;2023-01-28T00:26:23;23.55;;;10.52;;
43580;SDS011;29175;51.030;4.606;2023-01-28T00:28:49;22.63;;;10.52;;
43580;SDS011;29175;51.030;4.606;2023-01-28T00:33:41;25.48;;;10.82;;
43580;SDS011;29175;51.030;4.606;2023-01-28T00:36:08;21.85;;;10.52;;
43580;SDS011;29175;51.030;4.606;2023-01-28T00:38:34;24.67;;;10.98;;
43580;SDS011;29175;51.030;4.606;2023-01-28T00:41:13;24.70;;;11.60;;
43580;SDS011;29175;51.030;4.606;2023-01-28T00:43:41;25.08;;;10.57;;
43580;SDS011;29175;51.030;4.606;2023-01-28T00:46:10;22.95;;;11.05;;
43580;SDS011;29175;51.030;4.606;2023-01-28T00:48:38;25.13;;;10.75;;
43580;SDS011;29175;51.030;4.606;2023-01-28T00:51:05;25.55;;;10.90;;
43580;SDS011;29175;51.030;4.606;2023-01-28T00:53:31;29.83;;;11.13;;
43580;SDS011;29175;51.030;4.606;2023-01-28T00:56:02;25.35;;;11.25;;
43580;SDS011;29175;51.030;4.606;2023-01-28T00:58:29;23.70;;;11.15;;
43580;SDS011;29175;51.030;4.606;2023-01-28T01:00:55;26.17;;;11.20;;
43580;SDS011;29175;51.030;4.606;2023-01-28T01:03:21;22.63;;;10.95;;
43580;SDS011;29175;51.030;4.606;2023-01-28T01:05:47;24.92;;;11.55;;
43580;SDS011;29175;51.030;4.606;2023-01-28T01:08:13;26.77;;;12.35;;
43580;SDS011;29175;51.030;4.606;2023-01-28T01:10:38;22.05;;;10.60;;
43580;SDS011;29175;51.030;4.606;2023-01-28T01:13:05;25.90;;;11.57;;
43580;SDS011;29175;51.030;4.606;2023-01-28T01:15:31;22.38;;;10.68;;
43580;SDS011;29175;51.030;4.606;2023-01-28T01:17:57;25.92;;;11.27;;
43580;SDS011;29175;51.030;4.606;2023-01-28T01:20:25;27.92;;;11.43;;
43580;SDS011;29175;51.030;4.606;2023-01-28T01:22:52;26.03;;;11.20;;
43580;SDS011;29175;51.030;4.606;2023-01-28T01:25:20;24.77;;;11.57;;
43580;SDS011;29175;51.030;4.606;2023-01-28T01:27:47;28.23;;;12.10;;
43580;SDS011;29175;51.030;4.606;2023-01-28T01:30:14;26.50;;;11.48;;
43580;SDS011;29175;51.030;4.606;2023-01-28T01:32:41;28.88;;;11.75;;
43580;SDS011;29175;51.030;4.606;2023-01-28T01:35:07;24.05;;;10.35;;
43580;SDS011;29175;51.030;4.606;2023-01-28T01:37:34;24.90;;;10.88;;
43580;SDS011;29175;51.030;4.606;2023-01-28T01:40:01;31.73;;;11.70;;
43580;SDS011;29175;51.030;4.606;2023-01-28T01:42:29;27.85;;;11.25;;
43580;SDS011;29175;51.030;4.606;2023-01-28T01:44:57;27.23;;;11.18;;
43580;SDS011;29175;51.030;4.606;2023-01-28T01:47:30;29.38;;;12.23;;
43580;SDS011;29175;51.030;4.606;2023-01-28T01:50:28;29.63;;;11.98;;
43580;SDS011;29175;51.030;4.606;2023-01-28T01:53:09;26.60;;;10.75;;
43580;SDS011;29175;51.030;4.606;2023-01-28T01:55:37;25.17;;;10.85;;
43580;SDS011;29175;51.030;4.606;2023-01-28T01:58:08;26.33;;;11.55;;
43580;SDS011;29175;51.030;4.606;2023-01-28T02:00:37;26.05;;;11.30;;
43580;SDS011;29175;51.030;4.606;2023-01-28T02:03:04;26.13;;;10.60;;
43580;SDS011;29175;51.030;4.606;2023-01-28T02:05:29;25.77;;;11.23;;
43580;SDS011;29175;51.030;4.606;2023-01-28T02:07:56;28.10;;;12.10;;
43580;SDS011;29175;51.030;4.606;2023-01-28T02:10:41;29.52;;;11.55;;
43580;SDS011;29175;51.030;4.606;2023-01-28T02:13:08;28.90;;;12.13;;
43580;SDS011;29175;51.030;4.606;2023-01-28T02:15:33;30.48;;;11.80;;
43580;SDS011;29175;51.030;4.606;2023-01-28T02:18:00;27.15;;;11.60;;
43580;SDS011;29175;51.030;4.606;2023-01-28T02:23:35;26.90;;;11.35;;
43580;SDS011;29175;51.030;4.606;2023-01-28T02:31:56;28.15;;;10.93;;
43580;SDS011;29175;51.030;4.606;2023-01-28T02:34:34;28.30;;;11.80;;
43580;SDS011;29175;51.030;4.606;2023-01-28T02:37:25;29.05;;;11.52;;
43580;SDS011;29175;51.030;4.606;2023-01-28T02:40:00;27.88;;;11.32;;
43580;SDS011;29175;51.030;4.606;2023-01-28T02:42:32;28.67;;;10.82;;
43580;SDS011;29175;51.030;4.606;2023-01-28T02:45:01;29.63;;;11.35;;
43580;SDS011;29175;51.030;4.606;2023-01-28T02:47:27;26.35;;;11.30;;
43580;SDS011;29175;51.030;4.606;2023-01-28T02:50:12;27.27;;;11.18;;
43580;SDS011;29175;51.030;4.606;2023-01-28T02:58:37;25.95;;;10.82;;
43580;SDS011;29175;51.030;4.606;2023-01-28T03:01:27;28.35;;;11.30;;
43580;SDS011;29175;51.030;4.606;2023-01-28T03:04:02;27.60;;;10.63;;
43580;SDS011;29175;51.030;4.606;2023-01-28T03:06:38;30.38;;;12.30;;
43580;SDS011;29175;51.030;4.606;2023-01-28T03:09:09;25.45;;;10.77;;
43580;SDS011;29175;51.030;4.606;2023-01-28T03:11:55;25.90;;;10.82;;
43580;SDS011;29175;51.030;4.606;2023-01-28T03:14:48;26.80;;;10.18;;
43580;SDS011;29175;51.030;4.606;2023-01-28T03:21:04;24.63;;;9.90;;
43580;SDS011;29175;51.030;4.606;2023-01-28T03:23:49;26.20;;;10.15;;
43580;SDS011;29175;51.030;4.606;2023-01-28T03:26:37;25.17;;;10.02;;
43580;SDS011;29175;51.030;4.606;2023-01-28T03:29:30;26.73;;;11.13;;
43580;SDS011;29175;51.030;4.606;2023-01-28T03:32:15;23.13;;;11.00;;
43580;SDS011;29175;51.030;4.606;2023-01-28T03:35:01;27.00;;;10.98;;
43580;SDS011;29175;51.030;4.606;2023-01-28T03:37:47;24.08;;;10.45;;
43580;SDS011;29175;51.030;4.606;2023-01-28T03:40:12;26.38;;;10.55;;
43580;SDS011;29175;51.030;4.606;2023-01-28T03:42:38;33.47;;;11.95;;
43580;SDS011;29175;51.030;4.606;2023-01-28T03:45:04;24.60;;;10.20;;
43580;SDS011;29175;51.030;4.606;2023-01-28T03:47:32;26.30;;;10.77;;
43580;SDS011;29175;51.030;4.606;2023-01-28T03:49:58;24.10;;;10.32;;
43580;SDS011;29175;51.030;4.606;2023-01-28T03:52:31;26.00;;;10.63;;
43580;SDS011;29175;51.030;4.606;2023-01-28T03:54:57;29.40;;;11.35;;
43580;SDS011;29175;51.030;4.606;2023-01-28T03:57:25;26.63;;;11.85;;
43580;SDS011;29175;51.030;4.606;2023-01-28T03:59:52;25.50;;;11.63;;
43580;SDS011;29175;51.030;4.606;2023-01-28T04:02:19;25.20;;;11.32;;
43580;SDS011;29175;51.030;4.606;2023-01-28T04:04:45;27.73;;;11.07;;
43580;SDS011;29175;51.030;4.606;2023-01-28T04:07:11;25.35;;;11.02;;
43580;SDS011;29175;51.030;4.606;2023-01-28T04:09:39;30.88;;;12.88;;
43580;SDS011;29175;51.030;4.606;2023-01-28T04:12:05;26.65;;;11.27;;
43580;SDS011;29175;51.030;4.606;2023-01-28T04:14:31;27.00;;;10.63;;
43580;SDS011;29175;51.030;4.606;2023-01-28T04:16:57;25.75;;;11.38;;
43580;SDS011;29175;51.030;4.606;2023-01-28T04:19:23;27.58;;;11.57;;
43580;SDS011;29175;51.030;4.606;2023-01-28T04:21:50;26.88;;;10.98;;
43580;SDS011;29175;51.030;4.606;2023-01-28T04:24:18;29.67;;;12.32;;
43580;SDS011;29175;51.030;4.606;2023-01-28T04:26:44;23.00;;;11.13;;
43580;SDS011;29175;51.030;4.606;2023-01-28T04:29:10;25.05;;;11.48;;
43580;SDS011;29175;51.030;4.606;2023-01-28T04:31:35;27.75;;;12.15;;
43580;SDS011;29175;51.030;4.606;2023-01-28T04:34:01;26.35;;;10.65;;
43580;SDS011;29175;51.030;4.606;2023-01-28T04:36:27;27.05;;;11.18;;
43580;SDS011;29175;51.030;4.606;2023-01-28T04:38:53;28.85;;;11.52;;
43580;SDS011;29175;51.030;4.606;2023-01-28T04:41:18;23.52;;;10.30;;
43580;SDS011;29175;51.030;4.606;2023-01-28T04:43:44;27.25;;;10.73;;
43580;SDS011;29175;51.030;4.606;2023-01-28T04:46:10;28.45;;;11.80;;
43580;SDS011;29175;51.030;4.606;2023-01-28T04:48:35;26.83;;;11.15;;
43580;SDS011;29175;51.030;4.606;2023-01-28T04:51:02;25.00;;;10.77;;
43580;SDS011;29175;51.030;4.606;2023-01-28T04:53:29;24.38;;;10.48;;
43580;SDS011;29175;51.030;4.606;2023-01-28T04:55:56;27.02;;;11.57;;
43580;SDS011;29175;51.030;4.606;2023-01-28T04:58:22;24.60;;;10.75;;
43580;SDS011;29175;51.030;4.606;2023-01-28T05:00:54;25.95;;;12.15;;
43580;SDS011;29175;51.030;4.606;2023-01-28T05:03:22;27.35;;;11.57;;
43580;SDS011;29175;51.030;4.606;2023-01-28T05:05:48;30.42;;;12.07;;
43580;SDS011;29175;51.030;4.606;2023-01-28T05:08:15;28.05;;;11.52;;
43580;SDS011;29175;51.030;4.606;2023-01-28T05:10:41;30.23;;;12.30;;
43580;SDS011;29175;51.030;4.606;2023-01-28T05:13:07;30.73;;;12.23;;
43580;SDS011;29175;51.030;4.606;2023-01-28T05:15:33;27.77;;;12.15;;
43580;SDS011;29175;51.030;4.606;2023-01-28T05:17:59;28.67;;;12.30;;
43580;SDS011;29175;51.030;4.606;2023-01-28T05:20:25;25.55;;;11.18;;
43580;SDS011;29175;51.030;4.606;2023-01-28T05:22:51;24.42;;;10.98;;
43580;SDS011;29175;51.030;4.606;2023-01-28T05:25:17;31.80;;;12.07;;
43580;SDS011;29175;51.030;4.606;2023-01-28T05:27:42;29.35;;;12.60;;
43580;SDS011;29175;51.030;4.606;2023-01-28T05:30:13;35.63;;;13.20;;
43580;SDS011;29175;51.030;4.606;2023-01-28T05:32:38;26.33;;;11.38;;
43580;SDS011;29175;51.030;4.606;2023-01-28T05:35:05;25.58;;;11.20;;
43580;SDS011;29175;51.030;4.606;2023-01-28T05:37:31;28.67;;;11.90;;
43580;SDS011;29175;51.030;4.606;2023-01-28T05:39:57;26.70;;;10.32;;
43580;SDS011;29175;51.030;4.606;2023-01-28T05:42:23;23.55;;;10.40;;
43580;SDS011;29175;51.030;4.606;2023-01-28T05:44:48;23.65;;;10.32;;
43580;SDS011;29175;51.030;4.606;2023-01-28T05:47:17;23.98;;;10.35;;
43580;SDS011;29175;51.030;4.606;2023-01-28T05:49:43;27.65;;;10.52;;
43580;SDS011;29175;51.030;4.606;2023-01-28T05:52:10;25.80;;;11.25;;
43580;SDS011;29175;51.030;4.606;2023-01-28T05:54:36;23.50;;;10.50;;
43580;SDS011;29175;51.030;4.606;2023-01-28T05:57:02;22.27;;;9.65;;
43580;SDS011;29175;51.030;4.606;2023-01-28T05:59:28;22.27;;;9.38;;
43580;SDS011;29175;51.030;4.606;2023-01-28T06:01:53;23.52;;;10.30;;
43580;SDS011;29175;51.030;4.606;2023-01-28T06:04:19;25.67;;;10.98;;
43580;SDS011;29175;51.030;4.606;2023-01-28T06:06:45;25.27;;;10.50;;
43580;SDS011;29175;51.030;4.606;2023-01-28T06:09:11;25.00;;;10.60;;
43580;SDS011;29175;51.030;4.606;2023-01-28T06:11:36;26.02;;;10.82;;
43580;SDS011;29175;51.030;4.606;2023-01-28T06:14:02;25.63;;;10.65;;
43580;SDS011;29175;51.030;4.606;2023-01-28T06:16:28;26.60;;;10.68;;
43580;SDS011;29175;51.030;4.606;2023-01-28T06:18:53;29.48;;;12.02;;
43580;SDS011;29175;51.030;4.606;2023-01-28T06:21:19;32.35;;;12.52;;
43580;SDS011;29175;51.030;4.606;2023-01-28T06:23:45;30.08;;;13.10;;
43580;SDS011;29175;51.030;4.606;2023-01-28T06:26:10;29.67;;;12.23;;
43580;SDS011;29175;51.030;4.606;2023-01-28T06:28:36;30.17;;;12.45;;
43580;SDS011;29175;51.030;4.606;2023-01-28T06:31:02;25.92;;;11.23;;
43580;SDS011;29175;51.030;4.606;2023-01-28T06:33:28;25.50;;;11.02;;
43580;SDS011;29175;51.030;4.606;2023-01-28T06:35:54;29.10;;;12.10;;
43580;SDS011;29175;51.030;4.606;2023-01-28T06:38:19;27.30;;;11.82;;
43580;SDS011;29175;51.030;4.606;2023-01-28T06:40:52;26.25;;;11.10;;
43580;SDS011;29175;51.030;4.606;2023-01-28T06:43:20;32.97;;;12.48;;
43580;SDS011;29175;51.030;4.606;2023-01-28T06:45:51;24.45;;;11.30;;
43580;SDS011;29175;51.030;4.606;2023-01-28T06:48:18;32.55;;;12.23;;
43580;SDS011;29175;51.030;4.606;2023-01-28T06:50:47;26.67;;;11.55;;
43580;SDS011;29175;51.030;4.606;2023-01-28T06:53:13;31.73;;;12.82;;
43580;SDS011;29175;51.030;4.606;2023-01-28T06:55:40;29.05;;;12.38;;
43580;SDS011;29175;51.030;4.606;2023-01-28T06:58:06;24.35;;;11.48;;
43580;SDS011;29175;51.030;4.606;2023-01-28T07:00:31;28.48;;;11.50;;
43580;SDS011;29175;51.030;4.606;2023-01-28T07:02:57;28.23;;;10.70;;
43580;SDS011;29175;51.030;4.606;2023-01-28T07:05:23;26.48;;;11.05;;
43580;SDS011;29175;51.030;4.606;2023-01-28T07:07:49;27.25;;;11.60;;
43580;SDS011;29175;51.030;4.606;2023-01-28T07:10:15;25.48;;;10.60;;
43580;SDS011;29175;51.030;4.606;2023-01-28T07:12:41;28.95;;;11.30;;
43580;SDS011;29175;51.030;4.606;2023-01-28T07:15:07;28.02;;;12.48;;
43580;SDS011;29175;51.030;4.606;2023-01-28T07:17:35;25.05;;;10.73;;
43580;SDS011;29175;51.030;4.606;2023-01-28T07:20:05;27.52;;;12.63;;
43580;SDS011;29175;51.030;4.606;2023-01-28T07:22:32;24.42;;;11.55;;
43580;SDS011;29175;51.030;4.606;2023-01-28T07:24:57;25.70;;;11.40;;
43580;SDS011;29175;51.030;4.606;2023-01-28T07:27:25;31.45;;;12.13;;
43580;SDS011;29175;51.030;4.606;2023-01-28T07:29:51;28.17;;;12.13;;
43580;SDS011;29175;51.030;4.606;2023-01-28T07:32:17;31.30;;;12.75;;
43580;SDS011;29175;51.030;4.606;2023-01-28T07:34:42;26.10;;;11.15;;
43580;SDS011;29175;51.030;4.606;2023-01-28T07:37:08;28.73;;;12.68;;
43580;SDS011;29175;51.030;4.606;2023-01-28T07:39:34;31.27;;;13.05;;
43580;SDS011;29175;51.030;4.606;2023-01-28T07:42:00;39.35;;;14.50;;
43580;SDS011;29175;51.030;4.606;2023-01-28T07:44:26;30.63;;;12.23;;
43580;SDS011;29175;51.030;4.606;2023-01-28T07:46:52;39.00;;;15.18;;
43580;SDS011;29175;51.030;4.606;2023-01-28T07:49:18;31.98;;;13.32;;
43580;SDS011;29175;51.030;4.606;2023-01-28T07:51:44;32.28;;;12.70;;
43580;SDS011;29175;51.030;4.606;2023-01-28T07:54:14;37.55;;;14.38;;
43580;SDS011;29175;51.030;4.606;2023-01-28T07:56:40;34.42;;;13.45;;
43580;SDS011;29175;51.030;4.606;2023-01-28T07:59:06;32.15;;;13.20;;
43580;SDS011;29175;51.030;4.606;2023-01-28T08:01:32;29.85;;;12.98;;
43580;SDS011;29175;51.030;4.606;2023-01-28T08:03:58;33.35;;;13.20;;
43580;SDS011;29175;51.030;4.606;2023-01-28T08:06:23;34.30;;;13.18;;
43580;SDS011;29175;51.030;4.606;2023-01-28T08:08:49;30.42;;;13.30;;
43580;SDS011;29175;51.030;4.606;2023-01-28T08:11:15;28.63;;;13.07;;
43580;SDS011;29175;51.030;4.606;2023-01-28T08:13:41;31.10;;;13.38;;
43580;SDS011;29175;51.030;4.606;2023-01-28T08:16:07;30.92;;;12.57;;
43580;SDS011;29175;51.030;4.606;2023-01-28T08:18:32;30.50;;;13.07;;
43580;SDS011;29175;51.030;4.606;2023-01-28T08:20:58;30.25;;;13.05;;
43580;SDS011;29175;51.030;4.606;2023-01-28T08:23:25;33.28;;;12.57;;
43580;SDS011;29175;51.030;4.606;2023-01-28T08:25:51;32.53;;;13.57;;
43580;SDS011;29175;51.030;4.606;2023-01-28T08:28:18;30.55;;;13.48;;
43580;SDS011;29175;51.030;4.606;2023-01-28T08:30:45;26.65;;;11.57;;
43580;SDS011;29175;51.030;4.606;2023-01-28T08:33:12;29.88;;;12.85;;
43580;SDS011;29175;51.030;4.606;2023-01-28T08:35:39;28.85;;;12.43;;
43580;SDS011;29175;51.030;4.606;2023-01-28T08:38:05;30.02;;;12.15;;
43580;SDS011;29175;51.030;4.606;2023-01-28T08:40:32;30.90;;;12.07;;
43580;SDS011;29175;51.030;4.606;2023-01-28T08:42:58;27.85;;;12.50;;
43580;SDS011;29175;51.030;4.606;2023-01-28T08:45:25;31.83;;;12.70;;
43580;SDS011;29175;51.030;4.606;2023-01-28T08:47:52;28.95;;;13.23;;
43580;SDS011;29175;51.030;4.606;2023-01-28T08:50:20;33.33;;;12.32;;
43580;SDS011;29175;51.030;4.606;2023-01-28T08:52:46;33.72;;;13.82;;
43580;SDS011;29175;51.030;4.606;2023-01-28T08:55:14;29.27;;;11.80;;
43580;SDS011;29175;51.030;4.606;2023-01-28T08:57:40;35.75;;;15.07;;
43580;SDS011;29175;51.030;4.606;2023-01-28T09:00:07;35.42;;;13.45;;
43580;SDS011;29175;51.030;4.606;2023-01-28T09:02:36;32.45;;;13.40;;
43580;SDS011;29175;51.030;4.606;2023-01-28T09:05:03;34.67;;;15.40;;
43580;SDS011;29175;51.030;4.606;2023-01-28T09:07:30;39.38;;;15.10;;
43580;SDS011;29175;51.030;4.606;2023-01-28T09:09:56;33.28;;;13.75;;
43580;SDS011;29175;51.030;4.606;2023-01-28T09:12:22;35.92;;;14.50;;
43580;SDS011;29175;51.030;4.606;2023-01-28T09:14:48;37.45;;;15.60;;
43580;SDS011;29175;51.030;4.606;2023-01-28T09:17:13;33.10;;;13.93;;
43580;SDS011;29175;51.030;4.606;2023-01-28T09:19:39;31.23;;;13.02;;
43580;SDS011;29175;51.030;4.606;2023-01-28T09:22:05;37.42;;;13.80;;
43580;SDS011;29175;51.030;4.606;2023-01-28T09:24:30;31.10;;;12.60;;
43580;SDS011;29175;51.030;4.606;2023-01-28T09:26:56;29.08;;;11.40;;
43580;SDS011;29175;51.030;4.606;2023-01-28T09:29:22;25.63;;;11.80;;
43580;SDS011;29175;51.030;4.606;2023-01-28T09:31:48;31.15;;;12.45;;
43580;SDS011;29175;51.030;4.606;2023-01-28T09:34:13;30.75;;;13.35;;
43580;SDS011;29175;51.030;4.606;2023-01-28T09:36:39;32.45;;;13.80;;
43580;SDS011;29175;51.030;4.606;2023-01-28T09:39:05;36.22;;;13.48;;
43580;SDS011;29175;51.030;4.606;2023-01-28T09:44:04;23.85;;;12.05;;
43580;SDS011;29175;51.030;4.606;2023-01-28T09:46:42;27.88;;;11.80;;
43580;SDS011;29175;51.030;4.606;2023-01-28T09:49:43;27.00;;;12.40;;
43580;SDS011;29175;51.030;4.606;2023-01-28T09:52:13;33.60;;;13.00;;
43580;SDS011;29175;51.030;4.606;2023-01-28T09:54:42;29.98;;;13.20;;
43580;SDS011;29175;51.030;4.606;2023-01-28T09:57:35;34.47;;;12.60;;
43580;SDS011;29175;51.030;4.606;2023-01-28T10:00:12;26.70;;;12.20;;
43580;SDS011;29175;51.030;4.606;2023-01-28T10:05:33;29.38;;;11.95;;
43580;SDS011;29175;51.030;4.606;2023-01-28T10:11:11;33.50;;;13.30;;
43580;SDS011;29175;51.030;4.606;2023-01-28T10:14:04;31.58;;;11.88;;
43580;SDS011;29175;51.030;4.606;2023-01-28T10:16:55;32.22;;;13.45;;
43580;SDS011;29175;51.030;4.606;2023-01-28T10:19:32;34.83;;;14.02;;
43580;SDS011;29175;51.030;4.606;2023-01-28T10:22:06;29.77;;;12.10;;
43580;SDS011;29175;51.030;4.606;2023-01-28T10:24:39;35.72;;;14.43;;
43580;SDS011;29175;51.030;4.606;2023-01-28T10:27:14;40.25;;;14.85;;
43580;SDS011;29175;51.030;4.606;2023-01-28T10:29:43;29.23;;;12.90;;
43580;SDS011;29175;51.030;4.606;2023-01-28T10:34:58;33.28;;;13.15;;
43580;SDS011;29175;51.030;4.606;2023-01-28T10:37:28;30.48;;;11.25;;
43580;SDS011;29175;51.030;4.606;2023-01-28T10:39:58;28.40;;;12.25;;
43580;SDS011;29175;51.030;4.606;2023-01-28T10:42:28;28.33;;;11.50;;
43580;SDS011;29175;51.030;4.606;2023-01-28T10:44:56;35.00;;;12.95;;
43580;SDS011;29175;51.030;4.606;2023-01-28T10:47:40;31.48;;;12.07;;
43580;SDS011;29175;51.030;4.606;2023-01-28T10:50:26;39.80;;;12.98;;
43580;SDS011;29175;51.030;4.606;2023-01-28T10:53:03;31.40;;;12.50;;
43580;SDS011;29175;51.030;4.606;2023-01-28T10:56:04;31.75;;;12.75;;
43580;SDS011;29175;51.030;4.606;2023-01-28T10:58:24;26.63;;;11.32;;
43580;SDS011;29175;51.030;4.606;2023-01-28T11:00:59;29.95;;;12.27;;
43580;SDS011;29175;51.030;4.606;2023-01-28T11:03:26;27.52;;;11.40;;
43580;SDS011;29175;51.030;4.606;2023-01-28T11:05:56;36.75;;;12.45;;
43580;SDS011;29175;51.030;4.606;2023-01-28T11:08:23;24.55;;;11.00;;
43580;SDS011;29175;51.030;4.606;2023-01-28T11:10:50;24.65;;;10.40;;
43580;SDS011;29175;51.030;4.606;2023-01-28T11:13:23;32.20;;;12.25;;
43580;SDS011;29175;51.030;4.606;2023-01-28T11:15:57;25.40;;;11.45;;
43580;SDS011;29175;51.030;4.606;2023-01-28T11:18:37;36.78;;;12.45;;
43580;SDS011;29175;51.030;4.606;2023-01-28T11:21:15;27.95;;;11.40;;
43580;SDS011;29175;51.030;4.606;2023-01-28T11:23:51;28.27;;;12.77;;
43580;SDS011;29175;51.030;4.606;2023-01-28T11:26:28;26.70;;;11.20;;
43580;SDS011;29175;51.030;4.606;2023-01-28T11:28:56;31.10;;;12.38;;
43580;SDS011;29175;51.030;4.606;2023-01-28T11:31:23;32.22;;;12.65;;
43580;SDS011;29175;51.030;4.606;2023-01-28T11:33:54;30.05;;;12.55;;
43580;SDS011;29175;51.030;4.606;2023-01-28T11:36:29;28.98;;;11.90;;
43580;SDS011;29175;51.030;4.606;2023-01-28T11:38:57;34.17;;;12.75;;
43580;SDS011;29175;51.030;4.606;2023-01-28T11:41:27;33.17;;;12.55;;
43580;SDS011;29175;51.030;4.606;2023-01-28T11:43:58;40.85;;;14.00;;
43580;SDS011;29175;51.030;4.606;2023-01-28T11:46:42;30.90;;;12.48;;
43580;SDS011;29175;51.030;4.606;2023-01-28T11:55:18;35.30;;;14.07;;
43580;SDS011;29175;51.030;4.606;2023-01-28T12:06:26;32.78;;;13.13;;
43580;SDS011;29175;51.030;4.606;2023-01-28T12:09:14;31.00;;;12.82;;
43580;SDS011;29175;51.030;4.606;2023-01-28T12:19:47;34.75;;;14.05;;
43580;SDS011;29175;51.030;4.606;2023-01-28T12:25:30;33.33;;;13.15;;
43580;SDS011;29175;51.030;4.606;2023-01-28T12:39:19;39.00;;;14.68;;
43580;SDS011;29175;51.030;4.606;2023-01-28T12:41:56;32.22;;;12.98;;
43580;SDS011;29175;51.030;4.606;2023-01-28T12:44:42;34.10;;;14.25;;
43580;SDS011;29175;51.030;4.606;2023-01-28T12:47:21;31.92;;;14.07;;
43580;SDS011;29175;51.030;4.606;2023-01-28T12:49:58;34.00;;;12.98;;
43580;SDS011;29175;51.030;4.606;2023-01-28T12:52:41;30.98;;;13.20;;
43580;SDS011;29175;51.030;4.606;2023-01-28T12:57:43;31.77;;;13.52;;
43580;SDS011;29175;51.030;4.606;2023-01-28T13:02:55;38.40;;;13.77;;
43580;SDS011;29175;51.030;4.606;2023-01-28T13:05:35;34.00;;;11.98;;
43580;SDS011;29175;51.030;4.606;2023-01-28T13:08:10;31.27;;;12.85;;
43580;SDS011;29175;51.030;4.606;2023-01-28T13:10:45;34.50;;;14.45;;
43580;SDS011;29175;51.030;4.606;2023-01-28T13:13:16;35.55;;;14.05;;
43580;SDS011;29175;51.030;4.606;2023-01-28T13:16:04;31.30;;;13.02;;
43580;SDS011;29175;51.030;4.606;2023-01-28T13:23:49;34.38;;;13.73;;
43580;SDS011;29175;51.030;4.606;2023-01-28T13:26:40;28.00;;;11.53;;
43580;SDS011;29175;51.030;4.606;2023-01-28T13:31:40;35.72;;;13.48;;
43580;SDS011;29175;51.030;4.606;2023-01-28T13:34:10;32.40;;;12.90;;
43580;SDS011;29175;51.030;4.606;2023-01-28T13:36:57;37.47;;;13.50;;
43580;SDS011;29175;51.030;4.606;2023-01-28T13:39:25;37.57;;;13.23;;
43580;SDS011;29175;51.030;4.606;2023-01-28T13:41:54;33.92;;;13.15;;
43580;SDS011;29175;51.030;4.606;2023-01-28T13:44:32;27.85;;;11.35;;
43580;SDS011;29175;51.030;4.606;2023-01-28T13:47:14;30.67;;;12.65;;
43580;SDS011;29175;51.030;4.606;2023-01-28T13:49:58;28.17;;;11.70;;
43580;SDS011;29175;51.030;4.606;2023-01-28T13:52:43;30.58;;;11.82;;
43580;SDS011;29175;51.030;4.606;2023-01-28T13:55:15;33.78;;;12.68;;
43580;SDS011;29175;51.030;4.606;2023-01-28T14:17:53;29.13;;;11.35;;
43580;SDS011;29175;51.030;4.606;2023-01-28T14:22:51;31.20;;;11.75;;
43580;SDS011;29175;51.030;4.606;2023-01-28T14:25:27;35.08;;;12.70;;
43580;SDS011;29175;51.030;4.606;2023-01-28T14:28:01;28.13;;;10.80;;
43580;SDS011;29175;51.030;4.606;2023-01-28T14:33:14;30.17;;;11.95;;
43580;SDS011;29175;51.030;4.606;2023-01-28T14:35:43;31.98;;;11.63;;
43580;SDS011;29175;51.030;4.606;2023-01-28T14:38:13;30.58;;;11.60;;
43580;SDS011;29175;51.030;4.606;2023-01-28T14:40:41;26.67;;;10.65;;
43580;SDS011;29175;51.030;4.606;2023-01-28T14:43:10;27.92;;;10.90;;
43580;SDS011;29175;51.030;4.606;2023-01-28T14:51:11;26.88;;;10.60;;
43580;SDS011;29175;51.030;4.606;2023-01-28T14:59:21;24.92;;;10.27;;
43580;SDS011;29175;51.030;4.606;2023-01-28T15:01:54;28.63;;;11.23;;
43580;SDS011;29175;51.030;4.606;2023-01-28T15:06:52;23.73;;;10.27;;
43580;SDS011;29175;51.030;4.606;2023-01-28T15:09:17;32.58;;;11.48;;
43580;SDS011;29175;51.030;4.606;2023-01-28T15:11:45;25.52;;;10.07;;
43580;SDS011;29175;51.030;4.606;2023-01-28T15:14:27;23.23;;;10.93;;
43580;SDS011;29175;51.030;4.606;2023-01-28T15:16:55;20.48;;;9.07;;
43580;SDS011;29175;51.030;4.606;2023-01-28T15:19:29;25.65;;;11.18;;
43580;SDS011;29175;51.030;4.606;2023-01-28T15:22:00;23.15;;;9.48;;
43580;SDS011;29175;51.030;4.606;2023-01-28T15:24:28;23.95;;;10.75;;
43580;SDS011;29175;51.030;4.606;2023-01-28T15:26:56;25.52;;;10.18;;
43580;SDS011;29175;51.030;4.606;2023-01-28T15:29:27;22.67;;;10.70;;
43580;SDS011;29175;51.030;4.606;2023-01-28T15:31:57;26.77;;;10.93;;
43580;SDS011;29175;51.030;4.606;2023-01-28T15:34:25;25.83;;;10.38;;
43580;SDS011;29175;51.030;4.606;2023-01-28T15:36:54;26.73;;;11.40;;
43580;SDS011;29175;51.030;4.606;2023-01-28T15:39:21;26.42;;;10.55;;
43580;SDS011;29175;51.030;4.606;2023-01-28T15:41:50;24.23;;;10.23;;
43580;SDS011;29175;51.030;4.606;2023-01-28T15:44:26;24.75;;;9.85;;
43580;SDS011;29175;51.030;4.606;2023-01-28T15:46:55;21.02;;;10.07;;
43580;SDS011;29175;51.030;4.606;2023-01-28T15:49:22;27.05;;;10.70;;
43580;SDS011;29175;51.030;4.606;2023-01-28T15:51:52;21.38;;;9.65;;
43580;SDS011;29175;51.030;4.606;2023-01-28T15:54:18;25.80;;;10.18;;
43580;SDS011;29175;51.030;4.606;2023-01-28T15:56:44;21.75;;;10.25;;
43580;SDS011;29175;51.030;4.606;2023-01-28T15:59:18;21.08;;;9.32;;
43580;SDS011;29175;51.030;4.606;2023-01-28T16:02:11;25.65;;;11.52;;
43580;SDS011;29175;51.030;4.606;2023-01-28T16:04:59;28.95;;;11.00;;
43580;SDS011;29175;51.030;4.606;2023-01-28T16:07:27;25.88;;;10.93;;
43580;SDS011;29175;51.030;4.606;2023-01-28T16:09:55;24.98;;;10.80;;
43580;SDS011;29175;51.030;4.606;2023-01-28T16:12:22;27.83;;;11.88;;
43580;SDS011;29175;51.030;4.606;2023-01-28T16:17:23;29.50;;;11.93;;
43580;SDS011;29175;51.030;4.606;2023-01-28T16:19:56;24.17;;;10.38;;
43580;SDS011;29175;51.030;4.606;2023-01-28T16:24:57;24.40;;;10.30;;
43580;SDS011;29175;51.030;4.606;2023-01-28T16:27:24;27.48;;;11.43;;
43580;SDS011;29175;51.030;4.606;2023-01-28T16:29:51;28.95;;;11.05;;
43580;SDS011;29175;51.030;4.606;2023-01-28T16:32:28;22.70;;;9.93;;
43580;SDS011;29175;51.030;4.606;2023-01-28T16:34:54;25.13;;;10.55;;
43580;SDS011;29175;51.030;4.606;2023-01-28T16:37:20;25.42;;;10.35;;
43580;SDS011;29175;51.030;4.606;2023-01-28T16:39:47;32.50;;;13.02;;
43580;SDS011;29175;51.030;4.606;2023-01-28T16:42:13;27.13;;;11.18;;
43580;SDS011;29175;51.030;4.606;2023-01-28T16:44:39;27.08;;;11.98;;